Time;durP1;ratioP1;P1;durP2;ratioP2;P2;SDS_P1;SDS_P2;PMS_P1;PMS_P2;Temp;Humidity;BMP_temperature;BMP_pressure;BME280_temperature;BME280_humidity;BME280_pressure;Samples;Min_cycle;Max_cycle;Signal;HPM_P1;HPM_P2
2024/03/24 00:08:21;;;;;;;8.40;4.40;;;;;;;3.49;80.09;97565.77;435069;1250;108602;-39
2024/03/24 00:18:28;;;;;;;15.40;8.30;;;;;;;3.39;80.21;97551.80;435408;1254;100661;-40
2024/03/24 00:38:42;;;;;;;9.90;4.80;;;;;;;3.32;80.31;97520.77;435354;1253;108408;-40
2024/03/24 00:48:48;;;;;;;12.80;6.20;;;;;;;3.32;80.04;97503.73;435093;1253;100674;-42
2024/03/24 00:58:55;;;;;;;14.30;7.20;;;;;;;3.34;80.20;97491.66;435141;1255;109507;-41
2024/03/24 01:09:01;;;;;;;11.70;7.60;;;;;;;3.34;80.17;97474.97;435122;1253;100744;-40
2024/03/24 01:19:08;;;;;;;12.90;7.20;;;;;;;3.28;80.29;97484.49;435169;1255;111236;-41
2024/03/24 01:29:15;;;;;;;14.20;7.70;;;;;;;3.00;80.13;97467.30;435314;1256;107169;-39
2024/03/24 01:39:21;;;;;;;14.40;7.80;;;;;;;2.84;80.47;97468.16;435244;1251;100588;-40
2024/03/24 01:49:28;;;;;;;7.30;5.20;;;;;;;2.77;80.38;97453.12;435362;1254;108466;-39
2024/03/24 01:59:35;;;;;;;7.80;5.50;;;;;;;2.73;80.17;97439.01;435281;1255;101019;-40
2024/03/24 02:09:45;;;;;;;18.20;8.10;;;;;;;2.59;80.28;97429.04;435351;1254;112878;-40
2024/03/24 02:19:51;;;;;;;18.30;7.30;;;;;;;2.35;80.34;97443.30;435299;1256;107264;-40
2024/03/24 02:29:58;;;;;;;15.40;6.80;;;;;;;2.19;80.50;97460.02;435261;1251;100590;-40
2024/03/24 02:40:05;;;;;;;9.60;6.40;;;;;;;2.09;80.41;97473.73;436062;1249;107660;-40
2024/03/24 02:50:12;;;;;;;11.50;7.40;;;;;;;2.12;80.61;97478.75;435270;1254;99385;-40
2024/03/24 03:00:17;;;;;;;13.20;6.30;;;;;;;2.15;80.90;97482.86;435245;1254;114476;-40
2024/03/24 03:10:24;;;;;;;18.00;9.60;;;;;;;2.25;81.15;97471.38;435296;1251;106795;-40
2024/03/24 03:20:31;;;;;;;22.30;10.40;;;;;;;2.11;81.02;97472.90;435218;1256;99418;-39
2024/03/24 03:30:38;;;;;;;18.00;11.00;;;;;;;1.89;81.01;97471.58;435326;1256;108378;-39
2024/03/24 03:40:44;;;;;;;22.80;10.90;;;;;;;1.87;81.39;97472.38;435308;1251;99372;-41
2024/03/24 03:50:50;;;;;;;13.90;7.50;;;;;;;1.88;81.35;97466.16;435291;1250;114299;-40
2024/03/24 04:00:57;;;;;;;14.00;7.90;;;;;;;1.89;81.54;97470.13;435266;1250;106190;-40
2024/03/24 04:11:05;;;;;;;19.10;8.40;;;;;;;1.98;82.02;97469.43;435289;1256;100479;-40
2024/03/24 04:21:11;;;;;;;19.70;11.00;;;;;;;1.96;81.92;97462.02;435340;1254;106657;-38
2024/03/24 04:31:18;;;;;;;24.80;11.20;;;;;;;1.77;81.77;97461.68;435347;1254;99861;-39
2024/03/24 04:41:24;;;;;;;14.30;8.90;;;;;;;1.52;81.69;97459.34;435272;1254;113166;-40
2024/03/24 04:51:31;;;;;;;17.20;10.90;;;;;;;1.57;82.05;97449.87;435221;1256;107474;-41
2024/03/24 05:01:38;;;;;;;17.30;10.20;;;;;;;1.74;82.00;97451.06;435203;1256;100599;-40
2024/03/24 05:11:46;;;;;;;18.80;10.90;;;;;;;1.95;81.94;97445.95;435133;1256;107111;-40
2024/03/24 05:21:53;;;;;;;21.10;10.90;;;;;;;2.20;82.59;97448.44;435378;1251;99941;-40
2024/03/24 05:32:00;;;;;;;20.10;11.20;;;;;;;2.59;82.58;97438.84;435344;1256;112733;-41
2024/03/24 05:42:07;;;;;;;17.70;11.00;;;;;;;3.30;82.95;97431.70;435132;1256;443767;-40
2024/03/24 05:52:14;;;;;;;22.80;13.10;;;;;;;4.48;83.05;97425.91;435272;1253;100578;-40
2024/03/24 06:02:20;;;;;;;40.20;20.30;;;;;;;5.94;82.68;97422.05;435217;1250;108240;-39
2024/03/24 06:22:33;;;;;;;19.90;11.50;;;;;;;7.33;81.13;97424.48;435113;1256;112722;-40
2024/03/24 06:32:40;;;;;;;15.90;8.80;;;;;;;7.55;79.70;97434.04;435226;1256;109226;-40
2024/03/24 06:52:56;;;;;;;14.60;7.60;;;;;;;7.38;78.89;97447.04;435319;1254;107249;-41
2024/03/24 07:03:03;;;;;;;11.60;7.40;;;;;;;8.02;78.52;97448.75;435308;1254;99360;-39
2024/03/24 07:13:10;;;;;;;9.40;6.10;;;;;;;8.92;77.12;97442.78;435421;1256;114291;-39
2024/03/24 07:23:17;;;;;;;8.90;5.50;;;;;;;9.45;74.36;97444.52;435239;1253;109102;-41
2024/03/24 07:33:24;;;;;;;7.40;5.00;;;;;;;9.65;72.27;97440.20;435284;1251;99311;-40
2024/03/24 07:43:31;;;;;;;11.30;5.20;;;;;;;9.45;70.43;97445.89;435357;1256;108735;-40
2024/03/24 07:53:37;;;;;;;7.30;4.80;;;;;;;8.66;69.53;97449.29;435150;1256;99677;-38
2024/03/24 08:03:44;;;;;;;21.90;14.90;;;;;;;7.91;69.42;97452.75;435237;1256;113165;-41
2024/03/24 08:13:51;;;;;;;9.90;6.10;;;;;;;7.66;69.38;97445.17;435271;1256;109610;-39
2024/03/24 08:23:57;;;;;;;11.00;7.50;;;;;;;7.75;70.37;97449.57;435397;1253;100585;-39
2024/03/24 08:34:04;;;;;;;9.70;6.40;;;;;;;7.70;69.69;97454.70;435211;1256;108621;-40
2024/03/24 08:44:12;;;;;;;7.90;5.40;;;;;;;8.02;70.55;97454.55;435129;1256;99493;-40
2024/03/24 08:54:18;;;;;;;8.60;4.80;;;;;;;8.31;69.96;97450.16;435418;1256;111724;-40
2024/03/24 09:04:24;;;;;;;7.60;5.80;;;;;;;8.12;68.46;97455.34;435287;1256;108442;-42
2024/03/24 09:14:31;;;;;;;6.20;4.60;;;;;;;7.96;69.11;97450.20;435288;1256;99404;-41
2024/03/24 09:24:38;;;;;;;25.50;13.30;;;;;;;8.45;69.05;97443.62;435296;1263;108441;-40
2024/03/24 09:34:45;;;;;;;9.20;5.10;;;;;;;8.41;69.11;97441.56;435127;1256;100568;-40
2024/03/24 09:44:56;;;;;;;39.70;22.20;;;;;;;8.31;69.31;97437.31;435099;1256;114242;-40
2024/03/24 09:55:03;;;;;;;14.60;10.60;;;;;;;8.00;69.39;97435.24;435255;1253;106776;-40
2024/03/24 10:15:23;;;;;;;21.70;13.90;;;;;;;8.36;70.21;97412.30;435228;1256;107307;-40
2024/03/24 10:25:31;;;;;;;9.00;6.90;;;;;;;8.67;69.65;97408.69;435321;1257;99364;-41
2024/03/24 10:35:38;;;;;;;8.10;5.20;;;;;;;8.69;69.09;97402.99;435358;1256;111486;-40
2024/03/24 10:45:45;;;;;;;5.90;3.80;;;;;;;8.62;68.63;97391.81;435233;1251;108383;-41
2024/03/24 10:55:50;;;;;;;9.90;5.00;;;;;;;8.58;68.12;97381.17;435330;1256;99616;-41
2024/03/24 11:05:59;;;;;;;6.80;4.50;;;;;;;8.97;67.94;97374.31;435362;1256;107235;-41
2024/03/24 11:16:05;;;;;;;12.10;5.60;;;;;;;8.64;66.66;97370.13;435303;1251;99826;-41
2024/03/24 11:26:18;;;;;;;7.90;5.20;;;;;;;8.57;66.63;97363.95;435257;1257;112422;-40
2024/03/24 11:36:26;;;;;;;6.50;4.70;;;;;;;8.87;66.21;97348.00;435359;1255;107890;-39
2024/03/24 11:46:36;;;;;;;13.50;10.00;;;;;;;8.93;66.09;97336.41;435343;1256;99345;-41
2024/03/24 11:56:43;;;;;;;26.70;14.90;;;;;;;8.95;66.08;97325.15;435425;1256;107557;-40
2024/03/24 12:06:50;;;;;;;15.30;9.60;;;;;;;8.64;66.37;97328.55;435132;1264;100652;-41
2024/03/24 12:27:09;;;;;;;9.20;6.10;;;;;;;7.67;66.12;97354.48;435292;1256;107892;-41
2024/03/24 12:37:15;;;;;;;11.30;6.90;;;;;;;6.37;66.66;97354.40;435237;1261;99388;-40
2024/03/24 12:47:23;;;;;;;8.50;5.30;;;;;;;6.53;68.05;97335.23;435211;1256;107809;-39
2024/03/24 12:57:32;;;;;;;8.60;4.30;;;;;;;7.39;68.48;97321.18;435222;1251;99343;-39
2024/03/24 13:07:39;;;;;;;6.00;4.50;;;;;;;7.43;68.50;97307.47;435368;1257;111654;-39
2024/03/24 13:17:48;;;;;;;17.80;8.80;;;;;;;7.41;68.72;97300.60;435228;1257;107339;-39
2024/03/24 13:27:59;;;;;;;6.70;4.90;;;;;;;7.71;69.06;97290.69;435291;1251;101192;-39
2024/03/24 13:38:05;;;;;;;10.10;4.60;;;;;;;7.88;68.71;97277.07;435374;1256;108779;-40
2024/03/24 13:48:10;;;;;;;13.30;7.70;;;;;;;8.10;68.54;97270.89;435207;1258;100602;-40
2024/03/24 13:58:18;;;;;;;6.40;3.90;;;;;;;8.36;67.70;97261.34;435229;1251;114327;-40
2024/03/24 14:18:29;;;;;;;4.40;3.30;;;;;;;8.62;64.42;97250.27;435271;1257;100575;-41
2024/03/24 14:28:35;;;;;;;4.10;2.80;;;;;;;8.70;63.37;97244.44;435173;1257;108023;-39
2024/03/24 14:38:46;;;;;;;28.00;11.00;;;;;;;8.68;62.64;97234.83;435398;1251;99659;-41
2024/03/24 14:48:52;;;;;;;10.20;5.40;;;;;;;8.59;61.53;97236.28;435290;1254;112899;-40
2024/03/24 14:58:58;;;;;;;9.10;4.50;;;;;;;8.33;61.17;97235.71;435203;1257;108073;-39
2024/03/24 15:09:05;;;;;;;7.10;3.90;;;;;;;8.32;60.85;97225.95;435341;1251;99696;-40
2024/03/24 15:29:18;;;;;;;4.90;2.20;;;;;;;7.98;60.54;97212.90;435096;1251;99270;-40
2024/03/24 15:39:23;;;;;;;3.10;1.90;;;;;;;7.98;59.77;97214.80;435296;1257;113301;-41
2024/03/24 15:49:30;;;;;;;5.20;3.50;;;;;;;8.01;60.17;97209.72;435361;1255;109449;-40
2024/03/24 15:59:39;;;;;;;6.20;3.60;;;;;;;7.99;59.55;97204.07;435248;1251;100588;-39
2024/03/24 16:09:54;;;;;;;12.00;6.50;;;;;;;7.80;59.32;97206.70;435328;1254;108946;-40
2024/03/24 16:20:12;;;;;;;8.70;4.70;;;;;;;7.52;59.75;97207.39;435317;1251;99357;-40
2024/03/24 16:30:19;;;;;;;7.50;3.60;;;;;;;7.32;60.18;97211.33;435615;1254;112781;-40
2024/03/24 16:40:25;;;;;;;6.80;4.00;;;;;;;7.12;60.23;97207.23;435201;1256;108098;-40
2024/03/24 16:50:31;;;;;;;11.10;5.50;;;;;;;6.92;60.46;97206.05;435349;1251;100661;-39
2024/03/24 17:10:44;;;;;;;44.20;21.20;;;;;;;6.51;61.19;97199.20;435662;1251;100590;-39
2024/03/24 17:20:50;;;;;;;;;;;;;;;6.17;61.38;97209.30;435280;1251;114279;-39
2024/03/24 17:30:56;;;;;;;66.00;31.20;;;;;;;5.83;62.01;97221.16;435393;1254;107764;-41
2024/03/24 17:41:04;;;;;;;59.60;26.70;;;;;;;5.60;62.30;97225.95;435111;1254;466613;-40
2024/03/24 17:51:11;;;;;;;59.20;25.10;;;;;;;5.52;62.81;97232.76;435326;1254;108722;-43
2024/03/24 18:01:17;;;;;;;39.90;17.00;;;;;;;5.40;63.28;97230.40;435183;1251;99346;-40
2024/03/24 18:11:24;;;;;;;38.50;16.40;;;;;;;5.16;63.44;97229.15;435290;1256;113413;-41
2024/03/24 18:31:37;;;;;;;28.90;13.90;;;;;;;4.64;64.14;97233.20;435218;1256;100677;-40
2024/03/24 18:41:44;;;;;;;34.50;17.80;;;;;;;4.42;64.50;97234.72;435309;1256;108182;-41
2024/03/24 18:51:51;;;;;;;63.90;29.40;;;;;;;4.26;65.18;97243.01;435277;1256;99953;-40
2024/03/24 19:01:58;;;;;;;100.10;42.60;;;;;;;4.10;65.71;97244.59;435375;1255;113011;-39
2024/03/24 19:12:05;;;;;;;78.40;38.40;;;;;;;3.80;66.10;97253.61;435138;1254;107672;-41
2024/03/24 19:22:12;;;;;;;86.70;39.80;;;;;;;3.44;66.58;97259.02;435212;1250;100568;-39
2024/03/24 19:52:35;;;;;;;47.60;24.90;;;;;;;3.16;67.97;97252.72;435315;1254;112218;-42
2024/03/24 20:02:41;;;;;;;49.00;23.90;;;;;;;3.25;68.43;97247.27;435299;1250;107156;-39
2024/03/24 20:12:48;;;;;;;45.20;20.50;;;;;;;3.25;68.79;97242.02;435282;1256;100696;-40
2024/03/24 20:22:54;;;;;;;42.70;19.30;;;;;;;3.14;68.92;97242.09;435266;1254;108532;-40
2024/03/24 20:33:01;;;;;;;39.40;18.70;;;;;;;2.92;69.21;97239.23;435231;1254;99959;-39
2024/03/24 20:43:06;;;;;;;42.20;21.10;;;;;;;2.72;69.62;97235.67;435410;1255;112947;-40
2024/03/24 20:53:13;;;;;;;29.40;14.10;;;;;;;2.67;69.81;97228.61;435244;1253;107281;-41
2024/03/24 21:03:21;;;;;;;25.50;13.20;;;;;;;2.73;70.08;97224.69;435358;1253;100732;-40
2024/03/24 21:13:29;;;;;;;32.30;16.10;;;;;;;2.84;70.40;97221.02;435002;1256;107599;-40
2024/03/24 21:23:35;;;;;;;36.80;18.10;;;;;;;2.85;70.70;97220.91;435316;1252;99287;-39
2024/03/24 21:33:42;;;;;;;42.00;19.30;;;;;;;2.92;71.05;97214.90;435221;1256;113243;-40
2024/03/24 21:43:49;;;;;;;24.30;11.90;;;;;;;3.01;71.31;97214.13;435301;1256;109269;-40
2024/03/24 21:53:55;;;;;;;21.90;10.80;;;;;;;3.14;71.60;97210.02;435387;1250;100604;-40
2024/03/24 22:04:02;;;;;;;12.90;6.90;;;;;;;3.34;71.76;97203.41;435301;1254;110132;-40
2024/03/24 22:14:09;;;;;;;12.30;7.00;;;;;;;3.61;71.87;97199.23;435329;1250;100578;-40
2024/03/24 22:24:16;;;;;;;22.80;11.00;;;;;;;3.75;72.03;97190.34;435264;1254;113385;-39
2024/03/24 22:34:22;;;;;;;18.20;10.30;;;;;;;3.74;72.23;97172.84;435340;1252;109001;-40
2024/03/24 22:44:29;;;;;;;24.50;10.80;;;;;;;3.62;72.28;97171.52;435288;1254;99349;-40
2024/03/24 22:54:35;;;;;;;17.80;9.70;;;;;;;3.52;72.47;97165.65;435377;1254;109527;-40
2024/03/24 23:04:43;;;;;;;12.90;7.40;;;;;;;3.53;72.58;97164.52;435759;1254;100574;-40
2024/03/24 23:14:50;;;;;;;18.60;8.40;;;;;;;3.67;72.79;97168.20;435141;1250;112161;-40
2024/03/24 23:24:59;;;;;;;22.70;11.30;;;;;;;3.64;72.77;97169.84;435197;1256;108718;-40
2024/03/24 23:35:08;;;;;;;18.70;10.10;;;;;;;3.44;73.12;97168.45;435383;1251;99399;-40
2024/03/24 23:45:15;;;;;;;17.90;9.50;;;;;;;3.39;73.37;97161.16;435261;1254;108472;-41
2024/03/24 23:55:22;;;;;;;12.80;8.00;;;;;;;3.41;73.43;97147.23;435229;1251;100683;-40
